Time;durP1;ratioP1;P1;durP2;ratioP2;P2;SDS_P1;SDS_P2;PMS_P1;PMS_P2;Temp;Humidity;BMP_temperature;BMP_pressure;BME280_temperature;BME280_humidity;BME280_pressure;Samples;Min_cycle;Max_cycle;Signal;HPM_P1;HPM_P2
2021/08/08 00:01:19;;;;;;;7.93;4.47;;;;;;;21.33;57.88;99548.13;5013132;28;20041;-76
2021/08/08 00:03:46;;;;;;;9.65;4.63;;;;;;;21.28;58.19;99539.59;5029967;28;20460;-76
2021/08/08 00:06:12;;;;;;;8.38;4.97;;;;;;;21.37;57.83;99555.78;5011966;28;20033;-78
2021/08/08 00:08:37;;;;;;;6.32;4.80;;;;;;;21.35;57.81;99557.66;5008281;28;20741;-79
2021/08/08 00:11:04;;;;;;;12.52;4.68;;;;;;;21.29;57.93;99542.16;5010178;28;20621;-78
2021/08/08 00:13:30;;;;;;;11.52;4.85;;;;;;;21.20;57.93;99532.94;4992132;28;20045;-79
2021/08/08 00:16:04;;;;;;;9.65;4.40;;;;;;;21.25;57.92;99550.34;5008744;28;20489;-79
2021/08/08 00:18:31;;;;;;;13.70;5.60;;;;;;;21.15;57.90;99542.97;4977580;28;20145;-77
2021/08/08 00:20:56;;;;;;;7.68;4.55;;;;;;;21.22;58.03;99557.53;5015442;28;20038;-77
2021/08/08 00:23:22;;;;;;;9.57;4.35;;;;;;;21.19;58.33;99555.03;5010413;28;20053;-79
2021/08/08 00:25:49;;;;;;;7.47;4.90;;;;;;;21.11;58.33;99556.41;5008674;28;20064;-77
2021/08/08 00:28:16;;;;;;;7.95;4.72;;;;;;;21.13;58.61;99562.47;5008617;28;20038;-77
2021/08/08 00:30:42;;;;;;;11.63;4.82;;;;;;;21.11;58.73;99565.22;5008800;28;20562;-76
2021/08/08 00:33:09;;;;;;;14.07;5.15;;;;;;;21.06;58.93;99557.56;5025352;28;20053;-76
2021/08/08 00:35:42;;;;;;;10.63;5.43;;;;;;;21.07;58.78;99568.97;5009190;28;20045;-76
2021/08/08 00:38:10;;;;;;;9.63;5.10;;;;;;;21.02;59.11;99555.16;4992342;28;20561;-77
2021/08/08 00:40:36;;;;;;;10.40;4.97;;;;;;;20.95;59.05;99546.72;5008725;28;20087;-79
2021/08/08 00:43:03;;;;;;;6.90;4.57;;;;;;;20.98;59.18;99553.63;4992324;28;20045;-77
2021/08/08 00:45:29;;;;;;;14.98;5.63;;;;;;;21.03;59.14;99556.88;4992424;28;20038;-76
2021/08/08 00:48:03;;;;;;;12.10;4.93;;;;;;;20.94;59.19;99555.59;5015806;28;20050;-76
2021/08/08 00:50:36;;;;;;;8.60;4.80;;;;;;;20.98;59.45;99562.41;4996562;28;20041;-77
2021/08/08 00:53:06;;;;;;;8.57;4.88;;;;;;;20.95;59.52;99554.66;5020219;28;20036;-77
2021/08/08 00:55:32;;;;;;;6.32;4.85;;;;;;;20.99;59.53;99563.25;5034984;28;20046;-77
2021/08/08 00:57:57;;;;;;;13.40;5.30;;;;;;;20.94;59.43;99558.22;5033506;28;20046;-76
2021/08/08 01:00:24;;;;;;;8.80;4.85;;;;;;;20.92;59.74;99563.63;5028831;28;20224;-76
2021/08/08 01:02:57;;;;;;;9.35;5.13;;;;;;;20.90;59.80;99572.56;5009272;28;20033;-76
2021/08/08 01:05:38;;;;;;;7.43;4.72;;;;;;;20.94;59.65;99576.75;5012731;28;20049;-77
2021/08/08 01:08:07;;;;;;;9.10;4.90;;;;;;;20.88;59.39;99569.16;5031786;28;20036;-77
2021/08/08 01:10:34;;;;;;;6.93;4.97;;;;;;;20.82;59.74;99566.88;4999079;28;20045;-77
2021/08/08 01:13:02;;;;;;;7.35;4.60;;;;;;;20.84;59.84;99580.84;5031570;28;20045;-77
2021/08/08 01:15:30;;;;;;;10.55;5.05;;;;;;;20.84;59.53;99572.91;5032342;28;20048;-76
2021/08/08 01:17:57;;;;;;;9.30;4.57;;;;;;;20.89;59.30;99584.94;5032965;28;20772;-77
2021/08/08 01:20:25;;;;;;;7.72;4.90;;;;;;;20.88;59.55;99583.25;5015557;28;20083;-77
2021/08/08 01:22:59;;;;;;;9.95;5.00;;;;;;;20.79;59.38;99570.50;4999602;28;20102;-76
2021/08/08 01:25:26;;;;;;;7.15;4.40;;;;;;;20.88;59.50;99591.16;5031282;28;20043;-77
2021/08/08 01:27:58;;;;;;;9.88;4.93;;;;;;;20.76;59.73;99576.84;5008075;28;20068;-77
2021/08/08 01:30:25;;;;;;;8.32;4.53;;;;;;;20.90;59.33;99605.16;5013180;28;20053;-77
2021/08/08 01:32:52;;;;;;;9.68;4.95;;;;;;;20.90;59.32;99597.22;5012820;28;20421;-77
2021/08/08 01:35:21;;;;;;;6.97;4.25;;;;;;;20.85;59.11;99601.06;5011357;28;20042;-77
2021/08/08 01:37:47;;;;;;;11.15;5.28;;;;;;;20.88;59.09;99617.59;4995363;28;20046;-76
2021/08/08 01:40:20;;;;;;;10.35;4.82;;;;;;;20.83;59.39;99614.34;5013206;28;20576;-77
2021/08/08 01:42:49;;;;;;;7.82;4.68;;;;;;;20.83;59.88;99624.09;5010814;28;20098;-77
2021/08/08 01:45:17;;;;;;;7.03;4.80;;;;;;;20.76;60.08;99611.19;5052724;28;20081;-77
2021/08/08 01:47:49;;;;;;;9.50;5.03;;;;;;;20.74;60.04;99588.41;5031047;28;20037;-77
2021/08/08 01:50:20;;;;;;;10.00;5.05;;;;;;;20.72;60.47;99604.34;5031373;28;20460;-77
2021/08/08 01:52:48;;;;;;;7.63;5.05;;;;;;;20.74;60.51;99614.84;5030799;28;20069;-76
2021/08/08 01:55:19;;;;;;;12.30;5.10;;;;;;;20.63;60.20;99596.91;5031798;28;20062;-76
2021/08/08 01:57:53;;;;;;;8.73;5.38;;;;;;;20.73;60.72;99600.75;5015012;28;20029;-77
2021/08/08 02:00:24;;;;;;;11.38;5.13;;;;;;;20.59;60.43;99585.63;5031425;28;20045;-75
2021/08/08 02:02:56;;;;;;;9.45;4.80;;;;;;;20.75;60.59;99611.22;5014975;28;20046;-76
2021/08/08 02:05:30;;;;;;;11.32;5.57;;;;;;;20.73;60.28;99626.34;5034931;28;20041;-76
2021/08/08 02:07:58;;;;;;;12.57;5.72;;;;;;;20.69;60.57;99638.84;5011265;28;20041;-77
2021/08/08 02:10:27;;;;;;;11.27;6.47;;;;;;;20.71;60.85;99644.09;4979216;28;20424;-76
2021/08/08 02:12:53;;;;;;;12.65;6.32;;;;;;;20.66;60.52;99641.66;4995595;28;20135;-77
2021/08/08 02:15:19;;;;;;;12.65;6.68;;;;;;;20.62;60.63;99648.91;5011601;28;20077;-76
2021/08/08 02:17:53;;;;;;;13.52;7.05;;;;;;;20.65;60.77;99644.41;4996496;28;20038;-77
2021/08/08 02:20:20;;;;;;;9.63;6.20;;;;;;;20.51;60.76;99629.28;5014456;28;20098;-77
2021/08/08 02:22:53;;;;;;;9.63;5.60;;;;;;;20.55;61.27;99636.09;4998908;28;20053;-76
2021/08/08 02:25:21;;;;;;;9.95;5.68;;;;;;;20.42;61.18;99636.75;4994909;28;20041;-75
2021/08/08 02:27:48;;;;;;;8.05;5.55;;;;;;;20.52;61.15;99665.34;4994613;28;20037;-76
2021/08/08 02:30:36;;;;;;;9.70;6.10;;;;;;;20.52;61.48;99691.75;4994862;28;20046;-77
2021/08/08 02:33:03;;;;;;;11.52;6.07;;;;;;;20.47;61.50;99698.13;4994303;28;20497;-76
2021/08/08 02:35:32;;;;;;;8.93;5.43;;;;;;;20.52;61.88;99704.97;4994718;28;20146;-76
2021/08/08 02:37:58;;;;;;;12.23;5.70;;;;;;;20.51;62.12;99709.44;4994537;28;20045;-78
2021/08/08 02:40:24;;;;;;;7.60;5.45;;;;;;;20.41;62.11;99679.09;4993986;28;20053;-77
2021/08/08 02:42:50;;;;;;;9.38;5.43;;;;;;;20.43;61.93;99683.38;5013046;28;20057;-76
2021/08/08 02:45:16;;;;;;;11.98;5.70;;;;;;;20.51;62.36;99700.63;4984864;28;20053;-76
2021/08/08 02:47:42;;;;;;;15.10;5.57;;;;;;;20.51;62.07;99690.06;5009468;28;20520;-77
2021/08/08 02:50:10;;;;;;;8.25;5.35;;;;;;;20.47;62.18;99669.06;5021309;28;20021;-77
2021/08/08 02:52:40;;;;;;;8.77;5.20;;;;;;;20.37;62.27;99659.94;5055322;28;20030;-78
2021/08/08 02:55:09;;;;;;;8.15;5.63;;;;;;;20.42;62.00;99686.09;5055652;28;20056;-77
2021/08/08 02:57:38;;;;;;;12.20;5.78;;;;;;;20.36;62.39;99694.34;5035429;28;20146;-76
2021/08/08 03:00:05;;;;;;;10.18;5.70;;;;;;;20.35;62.59;99680.28;5014517;28;20037;-76
2021/08/08 03:02:31;;;;;;;9.18;5.68;;;;;;;20.20;63.25;99662.56;5032245;28;20041;-76
2021/08/08 03:04:57;;;;;;;12.57;6.40;;;;;;;20.32;63.58;99676.00;5033973;28;20041;-77
2021/08/08 03:07:23;;;;;;;11.95;7.03;;;;;;;20.21;64.53;99656.34;5032418;28;20456;-76
2021/08/08 03:09:49;;;;;;;11.63;6.90;;;;;;;20.19;65.57;99639.75;5032689;28;20103;-78
2021/08/08 03:12:15;;;;;;;10.73;6.35;;;;;;;20.24;65.56;99646.50;5031040;28;20045;-76
2021/08/08 03:14:42;;;;;;;8.85;6.18;;;;;;;20.21;66.30;99617.59;5031590;28;20055;-77
2021/08/08 03:17:08;;;;;;;15.98;7.13;;;;;;;20.24;66.46;99635.06;5032089;28;20137;-77
2021/08/08 03:19:34;;;;;;;12.15;7.82;;;;;;;20.26;66.89;99633.19;5032348;28;20517;-77
2021/08/08 03:22:00;;;;;;;13.20;7.13;;;;;;;20.26;66.54;99635.84;5031636;28;20037;-78
2021/08/08 03:24:25;;;;;;;13.38;7.90;;;;;;;20.22;66.65;99640.44;5032331;28;20552;-78
2021/08/08 03:26:54;;;;;;;11.02;7.53;;;;;;;20.20;66.35;99628.22;5039461;28;20041;-77
2021/08/08 03:29:20;;;;;;;15.60;7.55;;;;;;;20.25;66.30;99647.34;5028875;28;20465;-79
2021/08/08 03:31:47;;;;;;;12.07;6.80;;;;;;;20.24;66.46;99649.13;5046749;28;20045;-77
2021/08/08 03:34:14;;;;;;;14.82;7.32;;;;;;;20.30;66.54;99661.16;5021870;28;20049;-76
2021/08/08 03:36:41;;;;;;;10.98;7.50;;;;;;;20.31;66.67;99644.38;5027631;28;20046;-77
2021/08/08 03:39:07;;;;;;;12.77;7.88;;;;;;;20.29;66.72;99656.81;5029130;28;20022;-77
2021/08/08 03:41:33;;;;;;;11.77;7.60;;;;;;;20.20;66.96;99652.88;5029766;28;20063;-78
2021/08/08 03:43:58;;;;;;;14.27;7.70;;;;;;;20.22;66.86;99666.84;5010116;28;20069;-79
2021/08/08 03:46:24;;;;;;;14.38;7.18;;;;;;;20.09;66.59;99687.75;5033116;28;20018;-78
2021/08/08 03:48:51;;;;;;;12.98;7.45;;;;;;;20.00;67.42;99711.97;5052606;28;20021;-78
2021/08/08 03:51:17;;;;;;;13.57;6.82;;;;;;;19.90;67.45;99718.63;5027033;28;20080;-78
2021/08/08 03:53:43;;;;;;;9.85;6.95;;;;;;;19.83;67.88;99710.13;5040460;28;20456;-78
2021/08/08 03:56:09;;;;;;;13.07;6.82;;;;;;;19.81;68.21;99682.97;5032065;28;20060;-76
2021/08/08 03:58:35;;;;;;;12.68;7.10;;;;;;;19.73;68.37;99672.78;5045331;28;20084;-76
2021/08/08 04:01:04;;;;;;;10.45;6.90;;;;;;;19.57;68.61;99647.13;5048428;28;20114;-80
2021/08/08 04:03:33;;;;;;;10.65;7.00;;;;;;;19.81;68.76;99667.97;5049669;28;20037;-77
2021/08/08 04:05:59;;;;;;;11.32;7.10;;;;;;;19.93;68.62;99670.97;5048611;28;20045;-76
2021/08/08 04:08:25;;;;;;;10.05;7.15;;;;;;;19.93;68.40;99665.69;5029013;28;20036;-76
2021/08/08 04:10:54;;;;;;;15.93;7.28;;;;;;;19.93;68.68;99663.88;5025681;28;20042;-77
2021/08/08 04:13:22;;;;;;;11.32;7.40;;;;;;;19.96;68.42;99657.63;4989376;28;20045;-76
2021/08/08 04:16:01;;;;;;;9.90;7.05;;;;;;;19.99;68.59;99649.50;4988763;28;20041;-77
2021/08/08 04:18:31;;;;;;;12.95;7.18;;;;;;;20.19;68.18;99663.53;5029265;28;20454;-76
2021/08/08 04:20:57;;;;;;;16.05;6.97;;;;;;;20.27;68.14;99648.97;5011543;28;20038;-77
2021/08/08 04:23:23;;;;;;;11.10;6.70;;;;;;;20.47;67.81;99666.44;5011470;28;20045;-77
2021/08/08 04:25:50;;;;;;;11.23;6.63;;;;;;;20.43;67.54;99646.38;5018107;28;20064;-77
2021/08/08 04:28:16;;;;;;;14.82;7.78;;;;;;;20.66;67.47;99654.03;5026147;28;20056;-76
2021/08/08 04:30:42;;;;;;;14.05;7.78;;;;;;;20.69;67.59;99635.38;5011128;28;20041;-77
2021/08/08 04:33:09;;;;;;;8.75;6.88;;;;;;;20.87;67.32;99647.63;5012886;28;20586;-77
2021/08/08 04:35:37;;;;;;;12.40;6.90;;;;;;;21.18;67.16;99661.84;5000991;28;20046;-78
2021/08/08 04:38:05;;;;;;;11.77;7.30;;;;;;;21.47;66.63;99654.03;4980409;28;20042;-79
2021/08/08 04:40:31;;;;;;;16.95;8.05;;;;;;;21.67;66.27;99660.00;5011511;28;20042;-77
2021/08/08 04:42:58;;;;;;;9.85;6.57;;;;;;;21.78;66.07;99675.28;5017574;28;20049;-76
2021/08/08 04:45:42;;;;;;;12.18;7.28;;;;;;;21.67;65.53;99670.59;5008705;28;20069;-77
2021/08/08 04:48:14;;;;;;;10.30;6.78;;;;;;;21.54;65.41;99677.53;5022194;28;20038;-77
2021/08/08 04:50:41;;;;;;;13.57;7.50;;;;;;;21.65;65.60;99685.72;5004292;28;20029;-76
2021/08/08 04:53:17;;;;;;;10.85;6.95;;;;;;;21.81;65.76;99675.09;5009782;28;20053;-77
2021/08/08 04:55:44;;;;;;;14.30;7.45;;;;;;;22.03;65.63;99679.16;4999751;28;20136;-76
2021/08/08 04:58:10;;;;;;;14.35;7.68;;;;;;;22.05;65.16;99671.97;4998622;28;20501;-76
2021/08/08 05:00:36;;;;;;;11.05;7.25;;;;;;;22.22;65.28;99685.06;4982508;28;20044;-77
2021/08/08 05:03:05;;;;;;;12.88;6.95;;;;;;;22.31;64.87;99678.38;5015829;28;20118;-78
2021/08/08 05:05:33;;;;;;;10.38;7.45;;;;;;;22.58;64.35;99700.72;5002534;28;20033;-78
2021/08/08 05:07:59;;;;;;;12.52;6.90;;;;;;;22.76;64.28;99693.41;5034518;28;20048;-76
2021/08/08 05:10:30;;;;;;;12.80;6.38;;;;;;;22.96;63.86;99694.84;5036147;28;20083;-77
2021/08/08 05:12:58;;;;;;;14.43;6.25;;;;;;;23.15;63.33;99698.03;5017807;28;20045;-77
2021/08/08 05:15:24;;;;;;;11.82;6.72;;;;;;;23.30;63.15;99714.84;5035492;28;20041;-75
2021/08/08 05:17:54;;;;;;;9.95;6.07;;;;;;;23.34;62.55;99694.25;5034529;28;20440;-77
2021/08/08 05:20:40;;;;;;;12.50;6.70;;;;;;;23.67;62.14;99708.97;5033941;28;20132;-77
2021/08/08 05:23:16;;;;;;;13.27;6.30;;;;;;;23.91;61.72;99709.16;5018404;28;20098;-76
2021/08/08 05:25:45;;;;;;;10.80;5.97;;;;;;;24.04;61.03;99703.91;5035212;28;20330;-75
2021/08/08 05:28:11;;;;;;;10.05;6.70;;;;;;;24.19;60.17;99704.69;5009119;28;20033;-78
2021/08/08 05:30:37;;;;;;;12.15;6.28;;;;;;;24.12;59.93;99700.72;5015443;28;20069;-75
2021/08/08 05:33:04;;;;;;;12.20;6.05;;;;;;;24.21;59.10;99720.50;5015420;28;20045;-74
2021/08/08 05:35:36;;;;;;;14.60;6.43;;;;;;;24.24;58.67;99717.66;5015336;28;20050;-77
2021/08/08 05:38:05;;;;;;;10.57;6.10;;;;;;;24.33;57.93;99745.41;4998712;28;20576;-77
2021/08/08 05:40:31;;;;;;;10.32;6.60;;;;;;;24.05;57.54;99689.66;4983483;28;20077;-77
2021/08/08 05:42:58;;;;;;;11.60;6.75;;;;;;;23.90;57.43;99690.66;5015501;28;20046;-78
2021/08/08 05:45:23;;;;;;;9.45;6.30;;;;;;;24.10;57.81;99728.38;4998288;28;20045;-77
2021/08/08 05:47:51;;;;;;;11.40;6.53;;;;;;;24.19;57.72;99735.72;5020643;28;20707;-78
2021/08/08 05:50:21;;;;;;;10.98;6.38;;;;;;;24.24;58.09;99738.91;5024158;28;20069;-78
2021/08/08 05:52:48;;;;;;;9.35;6.43;;;;;;;24.31;57.94;99742.00;5007870;28;20045;-78
2021/08/08 05:55:15;;;;;;;14.77;7.10;;;;;;;24.42;57.51;99755.44;5036215;28;20049;-77
2021/08/08 05:57:42;;;;;;;16.70;6.82;;;;;;;24.25;57.06;99739.78;5033848;28;20091;-78
2021/08/08 06:00:08;;;;;;;11.57;6.60;;;;;;;24.30;57.58;99757.13;5018955;28;20431;-77
2021/08/08 06:02:45;;;;;;;7.93;6.45;;;;;;;24.27;57.66;99746.69;5033579;28;20043;-79
2021/08/08 06:05:18;;;;;;;9.82;6.20;;;;;;;24.26;57.89;99752.97;5016774;28;20044;-79
2021/08/08 06:07:44;;;;;;;8.75;6.50;;;;;;;23.88;57.87;99716.47;5030698;28;20037;-76
2021/08/08 06:10:10;;;;;;;11.07;6.70;;;;;;;23.98;57.70;99756.59;5034619;28;20049;-78
2021/08/08 06:12:36;;;;;;;13.95;7.55;;;;;;;23.74;58.23;99768.69;5034643;28;20508;-79
2021/08/08 06:15:03;;;;;;;12.40;7.60;;;;;;;23.47;58.27;99742.09;5033955;28;20128;-78
2021/08/08 06:17:31;;;;;;;11.45;6.60;;;;;;;23.30;58.58;99751.13;5036449;28;20068;-77
2021/08/08 06:19:57;;;;;;;12.30;6.65;;;;;;;23.21;58.52;99771.13;5034205;28;20504;-80
2021/08/08 06:22:23;;;;;;;12.57;6.65;;;;;;;23.12;58.98;99767.22;5038046;28;20041;-79
2021/08/08 06:24:49;;;;;;;16.33;7.80;;;;;;;23.02;59.21;99780.19;5020317;28;20068;-80
2021/08/08 06:27:15;;;;;;;16.63;7.20;;;;;;;23.01;60.01;99769.69;5017368;28;20500;-80
2021/08/08 06:29:41;;;;;;;20.00;7.80;;;;;;;23.02;60.35;99768.75;5035142;28;20045;-79
2021/08/08 06:32:07;;;;;;;15.20;8.07;;;;;;;22.83;60.29;99746.00;5036815;28;20041;-78
2021/08/08 06:34:36;;;;;;;16.20;7.45;;;;;;;22.89;60.77;99758.03;5034162;28;20417;-79
2021/08/08 06:37:05;;;;;;;16.70;7.88;;;;;;;22.86;61.00;99784.75;5032956;28;20115;-79
2021/08/08 06:39:37;;;;;;;15.18;7.35;;;;;;;22.87;61.08;99791.75;5003125;28;20517;-78
2021/08/08 06:42:06;;;;;;;14.80;7.45;;;;;;;22.43;61.48;99729.81;5002566;28;20044;-77
2021/08/08 06:44:36;;;;;;;11.65;7.53;;;;;;;22.86;61.68;99792.69;5014156;28;20070;-78
2021/08/08 06:47:04;;;;;;;16.00;7.55;;;;;;;22.79;61.67;99794.00;5056623;28;20147;-78
2021/08/08 06:49:30;;;;;;;14.82;7.25;;;;;;;22.82;62.15;99805.31;5037736;28;20052;-78
2021/08/08 06:51:56;;;;;;;19.25;7.43;;;;;;;22.91;62.62;99805.69;5039091;28;20041;-79
2021/08/08 06:54:22;;;;;;;13.52;7.25;;;;;;;22.91;62.32;99800.38;5033336;28;20041;-79
2021/08/08 06:56:48;;;;;;;19.42;7.63;;;;;;;23.12;62.76;99792.91;5032579;28;20054;-78
2021/08/08 06:59:17;;;;;;;14.90;7.60;;;;;;;23.21;62.55;99749.03;5016724;28;20445;-79
2021/08/08 07:01:43;;;;;;;11.35;7.38;;;;;;;23.88;62.20;99802.31;5032448;28;20058;-78
2021/08/08 07:04:09;;;;;;;11.68;7.13;;;;;;;24.40;61.27;99796.38;5016114;28;20049;-79
2021/08/08 07:06:35;;;;;;;12.32;7.00;;;;;;;24.89;60.80;99781.59;5032876;28;20427;-79
2021/08/08 07:09:02;;;;;;;11.07;6.53;;;;;;;25.35;59.66;99793.47;5034126;28;20045;-79
2021/08/08 07:11:28;;;;;;;12.15;7.47;;;;;;;25.48;58.07;99809.47;5001735;28;20049;-79
2021/08/08 07:13:56;;;;;;;14.48;7.78;;;;;;;25.30;57.60;99808.91;5018607;28;20041;-79
2021/08/08 07:16:22;;;;;;;14.90;7.63;;;;;;;25.03;57.58;99781.47;5021264;28;20052;-79
2021/08/08 07:18:50;;;;;;;18.15;7.72;;;;;;;24.85;57.63;99782.75;5037825;28;20038;-80
2021/08/08 07:21:18;;;;;;;17.13;8.27;;;;;;;24.87;57.76;99800.31;5035082;28;20068;-79
2021/08/08 07:23:46;;;;;;;15.70;8.50;;;;;;;24.63;57.42;99761.09;4998377;28;20136;-79
2021/08/08 07:26:13;;;;;;;20.05;9.13;;;;;;;24.97;57.51;99792.53;4994639;28;20077;-79
2021/08/08 07:28:39;;;;;;;19.17;9.02;;;;;;;25.78;57.32;99794.91;5015707;28;20045;-80
2021/08/08 07:31:05;;;;;;;16.33;9.50;;;;;;;26.26;56.33;99797.56;5031725;28;20043;-80
2021/08/08 07:33:31;;;;;;;16.00;8.70;;;;;;;26.28;54.93;99776.97;5031661;28;20067;-81
2021/08/08 07:35:57;;;;;;;14.60;8.82;;;;;;;26.31;54.46;99789.25;5031832;28;20489;-78
2021/08/08 07:38:26;;;;;;;13.73;7.75;;;;;;;26.45;54.95;99796.22;5031881;28;20539;-79
2021/08/08 07:40:53;;;;;;;15.82;8.57;;;;;;;26.60;54.74;99799.50;5030532;28;20087;-81
2021/08/08 07:43:19;;;;;;;15.73;8.00;;;;;;;26.69;54.13;99790.81;5015721;28;20075;-77
2021/08/08 07:45:46;;;;;;;18.95;8.98;;;;;;;26.86;53.84;99789.56;5030801;28;20076;-80
2021/08/08 07:48:12;;;;;;;18.35;9.32;;;;;;;27.05;53.24;99802.31;5031513;28;20068;-78
2021/08/08 07:50:38;;;;;;;14.23;8.15;;;;;;;27.06;52.98;99798.66;5014847;28;20523;-80
2021/08/08 07:53:05;;;;;;;20.77;9.27;;;;;;;27.05;52.85;99809.47;5036550;28;20056;-78
2021/08/08 07:55:31;;;;;;;19.77;8.88;;;;;;;26.88;52.78;99808.09;5036691;28;20065;-80
2021/08/08 07:57:58;;;;;;;17.35;8.88;;;;;;;26.73;53.06;99802.09;5018383;28;20033;-81
2021/08/08 08:00:25;;;;;;;15.38;9.10;;;;;;;26.57;53.38;99805.09;5015235;28;20152;-80
2021/08/08 08:02:59;;;;;;;15.45;8.05;;;;;;;26.42;53.34;99809.78;4994695;28;20087;-80
2021/08/08 08:05:40;;;;;;;21.55;9.50;;;;;;;26.36;53.82;99831.56;4996556;28;20054;-80
2021/08/08 08:08:20;;;;;;;19.02;8.85;;;;;;;25.97;54.34;99797.06;5016754;28;20541;-78
2021/08/08 08:10:49;;;;;;;17.70;9.18;;;;;;;26.15;54.22;99848.19;5016697;28;20061;-79
2021/08/08 08:13:19;;;;;;;16.27;8.57;;;;;;;25.81;54.45;99792.84;5014600;28;20049;-78
2021/08/08 08:15:52;;;;;;;17.85;8.82;;;;;;;26.08;54.29;99826.44;5014312;28;20149;-80
2021/08/08 08:18:22;;;;;;;19.77;9.27;;;;;;;25.53;54.88;99714.94;5031239;28;20041;-79
2021/08/08 08:20:51;;;;;;;15.70;8.88;;;;;;;26.69;54.90;99819.34;5014687;28;20064;-77
2021/08/08 08:23:20;;;;;;;17.25;8.93;;;;;;;27.30;54.49;99821.72;5014473;28;20038;-77
2021/08/08 08:25:50;;;;;;;18.02;8.60;;;;;;;27.57;53.90;99833.91;5030826;28;20128;-79
2021/08/08 08:28:18;;;;;;;12.60;7.93;;;;;;;27.60;53.53;99814.97;5003569;28;20048;-79
2021/08/08 08:31:02;;;;;;;13.20;8.50;;;;;;;27.76;52.72;99800.34;5013232;28;20073;-77
2021/08/08 08:33:31;;;;;;;14.52;9.50;;;;;;;28.04;52.53;99812.31;5027702;28;20184;-78
2021/08/08 08:35:59;;;;;;;15.80;9.02;;;;;;;28.48;52.33;99831.03;5031388;28;20053;-77
2021/08/08 08:38:41;;;;;;;16.23;9.35;;;;;;;28.59;51.55;99835.47;5032523;28;20049;-78
2021/08/08 08:41:13;;;;;;;12.45;8.75;;;;;;;27.91;51.67;99710.91;5020437;28;20489;-78
2021/08/08 08:43:41;;;;;;;12.57;8.30;;;;;;;28.19;51.44;99766.59;5035179;28;20383;-78
2021/08/08 08:46:09;;;;;;;13.98;8.85;;;;;;;28.67;51.33;99824.97;5048797;28;20045;-78
2021/08/08 08:48:37;;;;;;;16.90;9.32;;;;;;;28.45;51.34;99825.94;5024806;28;20037;-78
2021/08/08 08:51:05;;;;;;;13.32;8.98;;;;;;;28.40;51.80;99838.84;4997892;28;20041;-79
2021/08/08 08:53:42;;;;;;;12.43;8.60;;;;;;;28.27;51.81;99820.28;5015761;28;20041;-79
2021/08/08 08:56:09;;;;;;;31.05;16.88;;;;;;;28.54;52.29;99821.63;5030817;28;20053;-77
2021/08/08 08:58:38;;;;;;;39.78;29.90;;;;;;;28.99;51.77;99815.19;5031075;28;20481;-80
2021/08/08 09:01:11;;;;;;;29.02;19.63;;;;;;;29.49;51.04;99825.19;5017306;28;20040;-80
2021/08/08 09:04:15;;;;;;;21.23;13.10;;;;;;;29.80;50.48;99818.91;5015571;28;20125;-77
2021/08/08 09:06:46;;;;;;;12.45;9.52;;;;;;;29.93;49.93;99811.44;5012433;28;20044;-78
2021/08/08 09:09:32;;;;;;;14.77;10.95;;;;;;;30.43;49.87;99807.00;5029495;28;20523;-77
2021/08/08 09:12:24;;;;;;;13.73;10.05;;;;;;;30.78;47.92;99827.88;5004350;28;20068;-78
2021/08/08 09:15:02;;;;;;;10.13;7.70;;;;;;;30.62;47.24;99817.72;4976981;28;20728;-77
2021/08/08 09:17:37;;;;;;;16.45;9.85;;;;;;;30.33;47.44;99828.47;4992615;28;20068;-78
2021/08/08 09:20:06;;;;;;;9.63;6.30;;;;;;;29.59;46.93;99836.75;4992858;28;20087;-79
2021/08/08 09:22:33;;;;;;;13.52;5.95;;;;;;;28.88;47.13;99831.31;4993224;28;20091;-78
2021/08/08 09:24:59;;;;;;;9.10;5.68;;;;;;;28.36;47.55;99830.22;5009396;28;20449;-77
2021/08/08 09:27:34;;;;;;;7.88;5.35;;;;;;;27.88;47.71;99822.56;4974999;28;20099;-78
2021/08/08 09:30:18;;;;;;;10.57;4.95;;;;;;;27.71;48.55;99853.31;4993882;28;20037;-78
2021/08/08 09:33:00;;;;;;;10.32;5.00;;;;;;;27.62;48.94;99839.75;4993619;28;20426;-77
2021/08/08 09:35:32;;;;;;;9.98;6.32;;;;;;;27.62;48.69;99854.91;4993388;28;20038;-77
2021/08/08 09:38:07;;;;;;;9.50;6.00;;;;;;;27.55;49.50;99865.25;4993089;28;20714;-77
2021/08/08 09:40:36;;;;;;;10.73;6.82;;;;;;;27.66;49.38;99862.59;4993313;28;20045;-79
2021/08/08 09:43:07;;;;;;;11.13;6.07;;;;;;;27.79;49.08;99861.59;5001588;28;20050;-78
2021/08/08 09:45:43;;;;;;;;;;;;;;;27.91;49.23;99870.44;5012008;28;20462;-78
2021/08/08 09:48:19;;;;;;;10.10;6.32;;;;;;;27.99;49.03;99843.94;4995852;28;19948;-77
2021/08/08 09:50:46;;;;;;;8.27;5.57;;;;;;;28.26;48.71;99850.69;4995076;28;20041;-77
2021/08/08 09:53:17;;;;;;;8.98;5.57;;;;;;;28.61;48.76;99867.44;5011830;28;20041;-76
2021/08/08 09:55:43;;;;;;;;;;;;;;;28.93;48.46;99867.44;5013434;28;20058;-76
2021/08/08 09:58:16;;;;;;;6.65;5.53;;;;;;;29.22;47.71;99866.75;5018197;28;19928;-80
2021/08/08 10:00:42;;;;;;;11.82;6.30;;;;;;;29.16;47.45;99846.72;5003075;28;20061;-76
2021/08/08 10:03:11;;;;;;;12.20;6.20;;;;;;;28.92;46.84;99822.06;5044827;28;20036;-78
2021/08/08 10:05:39;;;;;;;8.10;6.07;;;;;;;29.05;47.22;99856.66;5032941;28;20037;-78
2021/08/08 10:08:11;;;;;;;7.53;5.55;;;;;;;28.96;47.16;99863.66;5033319;28;20413;-76
2021/08/08 10:10:39;;;;;;;11.52;5.88;;;;;;;28.92;47.17;99854.19;5030760;28;20045;-79
2021/08/08 10:13:08;;;;;;;8.35;5.93;;;;;;;28.88;47.31;99874.16;5031597;28;20128;-76
2021/08/08 10:15:41;;;;;;;11.73;5.68;;;;;;;28.70;47.27;99872.03;5032354;28;20124;-78
2021/08/08 10:18:09;;;;;;;11.20;5.68;;;;;;;28.50;47.40;99892.44;5013675;28;20141;-78
2021/08/08 10:20:36;;;;;;;10.45;5.68;;;;;;;28.26;47.59;99882.78;5014004;28;20037;-81
2021/08/08 10:23:15;;;;;;;59.88;22.48;;;;;;;28.14;48.11;99881.97;5032475;28;20036;-76
2021/08/08 10:25:51;;;;;;;7.15;5.50;;;;;;;28.25;47.86;99889.09;5014662;28;20128;-77
2021/08/08 10:28:19;;;;;;;6.60;4.60;;;;;;;28.13;47.55;99880.28;5020688;28;20041;-76
2021/08/08 10:30:47;;;;;;;10.35;4.60;;;;;;;27.91;47.54;99857.94;4997657;28;20048;-76
2021/08/08 10:33:13;;;;;;;7.65;4.63;;;;;;;27.94;47.03;99887.06;5016908;28;20037;-79
2021/08/08 10:36:02;;;;;;;7.20;4.15;;;;;;;27.34;46.83;99819.69;5027309;28;20141;-78
2021/08/08 10:38:36;;;;;;;7.75;4.43;;;;;;;27.52;47.57;99886.84;5034192;28;20412;-76
2021/08/08 10:41:09;;;;;;;7.82;4.15;;;;;;;27.42;47.51;99883.19;5034856;28;20176;-75
2021/08/08 10:43:47;;;;;;;7.88;5.15;;;;;;;27.22;47.60;99869.56;5025912;28;20034;-76
2021/08/08 10:46:17;;;;;;;5.97;4.40;;;;;;;27.38;48.25;99901.25;5016083;28;20059;-76
2021/08/08 10:48:44;;;;;;;10.38;5.20;;;;;;;27.35;47.49;99890.84;5032642;28;20045;-77
2021/08/08 10:51:18;;;;;;;4.90;4.40;;;;;;;27.29;48.16;99886.81;5036102;28;20079;-77
2021/08/08 10:53:44;;;;;;;7.50;4.65;;;;;;;27.19;48.00;99867.97;5019480;28;20037;-79
2021/08/08 10:56:21;;;;;;;7.63;4.43;;;;;;;27.37;47.88;99888.88;5016441;28;20127;-75
2021/08/08 10:58:48;;;;;;;7.38;5.38;;;;;;;27.32;48.16;99864.38;5020795;28;20045;-75
2021/08/08 11:01:20;;;;;;;7.40;4.28;;;;;;;27.45;47.88;99875.78;5035732;28;20115;-77
2021/08/08 11:03:54;;;;;;;11.93;4.00;;;;;;;27.38;48.09;99869.22;5032766;28;21450;-75
2021/08/08 11:06:47;;;;;;;6.50;4.53;;;;;;;27.11;48.00;99872.22;5034281;28;20049;-76
2021/08/08 11:09:17;;;;;;;4.05;3.63;;;;;;;26.98;48.41;99913.22;5036000;28;20029;-77
2021/08/08 11:12:03;;;;;;;6.25;4.20;;;;;;;26.59;49.10;99877.88;5018323;28;20493;-78
2021/08/08 11:14:47;;;;;;;7.97;4.60;;;;;;;26.60;49.00;99888.41;5017841;28;20049;-76
2021/08/08 11:17:12;;;;;;;6.55;4.43;;;;;;;26.62;49.44;99893.63;5036486;28;20566;-78
2021/08/08 11:19:41;;;;;;;7.53;4.60;;;;;;;26.61;49.70;99908.81;5036715;28;20501;-79
2021/08/08 11:22:15;;;;;;;7.13;4.60;;;;;;;26.58;49.89;99918.88;5035937;28;20045;-76
2021/08/08 11:24:44;;;;;;;7.85;4.90;;;;;;;26.52;49.88;99919.31;5036417;28;20038;-77
2021/08/08 11:27:11;;;;;;;6.30;4.40;;;;;;;26.39;50.16;99919.34;5035997;28;20044;-81
2021/08/08 11:29:38;;;;;;;8.52;4.28;;;;;;;26.29;50.79;99916.53;5019135;28;20160;-75
2021/08/08 11:32:07;;;;;;;9.15;4.60;;;;;;;26.27;51.08;99921.09;5036951;28;20062;-76
2021/08/08 11:34:33;;;;;;;8.15;4.97;;;;;;;26.26;50.89;99919.41;5034796;28;20037;-78
2021/08/08 11:36:59;;;;;;;10.15;5.05;;;;;;;26.21;51.24;99925.09;5037399;28;20045;-77
2021/08/08 11:39:34;;;;;;;10.75;7.07;;;;;;;26.15;51.94;99934.34;5037997;28;20048;-76